createdAt,value
2023-04-26T00:02:27.900Z,0.50
2023-04-26T00:04:59.209Z,0.50
2023-04-26T00:07:25.946Z,0.50
2023-04-26T00:09:52.856Z,0.60
2023-04-26T00:12:19.675Z,0.50
2023-04-26T00:14:46.245Z,0.55
2023-04-26T00:17:12.850Z,0.60
2023-04-26T00:19:39.798Z,0.60
2023-04-26T00:22:06.631Z,0.50
2023-04-26T00:24:33.395Z,0.60
2023-04-26T00:27:00.711Z,0.60
2023-04-26T00:29:27.645Z,0.50
2023-04-26T00:31:54.332Z,0.50
2023-04-26T00:34:21.204Z,0.50
2023-04-26T00:36:47.959Z,0.50
2023-04-26T00:39:14.552Z,0.50
2023-04-26T00:41:41.133Z,0.60
2023-04-26T00:44:07.784Z,0.60
2023-04-26T00:46:34.413Z,0.60
2023-04-26T00:49:00.976Z,0.55
2023-04-26T00:51:28.308Z,0.60
2023-04-26T00:53:55.203Z,0.52
2023-04-26T00:56:24.304Z,0.50
2023-04-26T00:58:51.147Z,0.60
2023-04-26T01:01:18.060Z,0.60
2023-04-26T01:03:46.937Z,0.60
2023-04-26T01:06:13.759Z,0.60
2023-04-26T01:08:40.629Z,0.60
2023-04-26T01:11:07.427Z,0.50
2023-04-26T01:13:34.338Z,0.60
2023-04-26T01:16:02.216Z,0.52
2023-04-26T01:18:29.013Z,0.50
2023-04-26T01:20:56.921Z,0.60
2023-04-26T01:23:23.507Z,0.50
2023-04-26T01:25:50.174Z,0.50
2023-04-26T01:28:16.776Z,0.50
2023-04-26T01:30:43.633Z,0.60
2023-04-26T01:33:10.272Z,0.50
2023-04-26T01:35:36.836Z,0.50
2023-04-26T01:38:04.423Z,0.60
2023-04-26T01:40:30.982Z,0.60
2023-04-26T01:42:57.691Z,0.60
2023-04-26T01:45:24.310Z,0.50
2023-04-26T01:47:51.017Z,0.50
2023-04-26T01:50:17.699Z,0.60
2023-04-26T01:52:44.397Z,0.60
2023-04-26T01:55:11.071Z,0.50
2023-04-26T01:57:37.648Z,0.50
2023-04-26T02:00:05.056Z,0.60
2023-04-26T02:02:31.639Z,0.50
2023-04-26T02:04:58.238Z,0.50
2023-04-26T02:07:24.888Z,0.55
2023-04-26T02:09:51.565Z,0.50
2023-04-26T02:12:18.162Z,0.50
2023-04-26T02:14:44.732Z,0.50
2023-04-26T02:17:11.311Z,0.50
2023-04-26T02:19:37.887Z,0.50
2023-04-26T02:22:06.306Z,0.50
2023-04-26T02:24:33.534Z,0.50
2023-04-26T02:27:03.840Z,0.50
2023-04-26T02:29:43.582Z,0.60
2023-04-26T02:32:11.363Z,0.50
2023-04-26T02:34:37.935Z,0.50
2023-04-26T02:37:04.691Z,0.50
2023-04-26T02:39:31.618Z,0.60
2023-04-26T02:41:58.260Z,0.50
2023-04-26T02:44:25.015Z,0.52
2023-04-26T02:46:51.737Z,0.50
2023-04-26T02:49:18.349Z,0.50
2023-04-26T02:51:44.893Z,0.50
2023-04-26T02:54:11.466Z,0.50
2023-04-26T02:56:38.046Z,0.50
2023-04-26T02:59:04.638Z,0.50
2023-04-26T03:01:31.256Z,0.50
2023-04-26T03:03:57.966Z,0.50
2023-04-26T03:06:24.582Z,0.50
2023-04-26T03:08:51.316Z,0.50
2023-04-26T03:11:18.076Z,0.50
2023-04-26T03:13:44.689Z,0.40
2023-04-26T03:16:11.771Z,0.50
2023-04-26T03:18:38.410Z,0.50
2023-04-26T03:21:05.062Z,0.50
2023-04-26T03:23:31.695Z,0.50
2023-04-26T03:25:58.861Z,0.50
2023-04-26T03:28:25.460Z,0.50
2023-04-26T03:30:52.084Z,0.50
2023-04-26T03:33:18.741Z,0.50
2023-04-26T03:35:45.359Z,0.50
2023-04-26T03:38:12.082Z,0.47
2023-04-26T03:40:38.689Z,0.50
2023-04-26T03:43:05.346Z,0.50
2023-04-26T03:45:31.888Z,0.50
2023-04-26T03:47:58.463Z,0.50
2023-04-26T03:50:25.175Z,0.50
2023-04-26T03:52:51.752Z,0.50
2023-04-26T03:55:18.411Z,0.55
2023-04-26T03:57:44.946Z,0.60
2023-04-26T04:00:13.841Z,0.50
2023-04-26T04:02:42.326Z,0.60
2023-04-26T04:05:09.550Z,0.50
2023-04-26T04:07:36.258Z,0.50
2023-04-26T04:10:02.836Z,0.50
2023-04-26T04:12:29.403Z,0.50
2023-04-26T04:14:56.343Z,0.50
2023-04-26T04:17:23.028Z,0.50
2023-04-26T04:19:49.636Z,0.50
2023-04-26T04:22:16.208Z,0.50
2023-04-26T04:24:44.302Z,0.50
2023-04-26T04:27:11.619Z,0.50
2023-04-26T04:29:38.433Z,0.50
2023-04-26T04:32:05.285Z,0.50
2023-04-26T04:34:36.124Z,0.60
2023-04-26T04:37:04.350Z,0.60
2023-04-26T04:39:31.142Z,0.60
2023-04-26T04:41:58.478Z,0.52
2023-04-26T04:44:26.977Z,0.60
2023-04-26T04:46:53.832Z,0.60
2023-04-26T04:49:20.922Z,0.50
2023-04-26T04:51:47.926Z,0.60
2023-04-26T04:54:16.600Z,0.60
2023-04-26T04:56:43.911Z,0.60
2023-04-26T04:59:11.618Z,0.60
2023-04-26T05:01:38.780Z,0.50
2023-04-26T05:04:06.968Z,0.60
2023-04-26T05:06:33.815Z,0.60
2023-04-26T05:09:01.475Z,0.60
2023-04-26T05:11:28.220Z,0.60
2023-04-26T05:13:54.896Z,0.60
2023-04-26T05:16:21.715Z,0.63
2023-04-26T05:18:48.383Z,0.60
2023-04-26T05:21:15.072Z,0.60
2023-04-26T05:23:41.991Z,0.60
2023-04-26T05:26:14.534Z,0.70
2023-04-26T05:28:41.492Z,0.60
2023-04-26T05:31:11.744Z,0.60
2023-04-26T05:33:38.536Z,0.60
2023-04-26T05:36:05.857Z,0.60
2023-04-26T05:38:32.526Z,0.60
2023-04-26T05:40:59.188Z,0.60
2023-04-26T05:43:25.830Z,0.68
2023-04-26T05:45:56.726Z,0.63
2023-04-26T05:48:24.818Z,0.60
2023-04-26T05:50:52.503Z,0.60
2023-04-26T05:53:19.853Z,0.70
2023-04-26T05:55:46.607Z,0.60
2023-04-26T05:58:13.279Z,0.65
2023-04-26T06:00:41.126Z,0.68
2023-04-26T06:03:07.933Z,0.70
2023-04-26T06:05:38.274Z,0.70
2023-04-26T06:08:05.492Z,0.60
2023-04-26T06:10:32.115Z,0.68
2023-04-26T06:12:58.754Z,0.60
2023-04-26T06:15:25.528Z,0.60
2023-04-26T06:17:52.116Z,0.70
2023-04-26T06:20:18.730Z,0.70
2023-04-26T06:22:45.276Z,0.60
2023-04-26T06:25:11.914Z,0.60
2023-04-26T06:27:39.287Z,0.60
2023-04-26T06:30:07.914Z,0.70
2023-04-26T06:32:34.741Z,0.70
2023-04-26T06:35:01.722Z,0.70
2023-04-26T06:37:28.513Z,0.70
2023-04-26T06:39:55.091Z,0.70
2023-04-26T06:42:22.516Z,0.70
2023-04-26T06:44:49.414Z,0.70
2023-04-26T06:47:15.976Z,0.73
2023-04-26T06:49:42.899Z,0.70
2023-04-26T06:52:09.695Z,0.73
2023-04-26T06:54:45.907Z,0.70
2023-04-26T06:57:16.790Z,0.80
2023-04-26T06:59:43.377Z,0.80
2023-04-26T07:02:10.003Z,0.70
2023-04-26T07:04:36.939Z,0.77
2023-04-26T07:07:03.865Z,0.70
2023-04-26T07:09:30.702Z,0.70
2023-04-26T07:11:57.486Z,0.70
2023-04-26T07:14:24.775Z,0.70
2023-04-26T07:16:51.387Z,0.70
2023-04-26T07:19:18.331Z,0.70
2023-04-26T07:21:44.969Z,0.70
2023-04-26T07:24:13.616Z,0.70
2023-04-26T07:26:41.607Z,0.70
2023-04-26T07:29:08.368Z,0.80
2023-04-26T07:31:35.884Z,0.80
2023-04-26T07:34:02.457Z,0.80
2023-04-26T07:36:29.131Z,0.80
2023-04-26T07:38:55.765Z,0.70
2023-04-26T07:41:22.377Z,0.80
2023-04-26T07:43:49.252Z,0.70
2023-04-26T07:46:16.104Z,0.70
2023-04-26T07:48:42.727Z,0.80
2023-04-26T07:51:11.095Z,0.80
2023-04-26T07:53:38.639Z,0.70
2023-04-26T07:56:07.934Z,0.70
2023-04-26T07:58:39.399Z,0.80
2023-04-26T08:01:06.684Z,0.80
2023-04-26T08:03:33.697Z,0.73
2023-04-26T08:06:01.315Z,0.80
2023-04-26T08:08:28.816Z,0.70
2023-04-26T08:10:55.844Z,0.90
2023-04-26T08:13:22.730Z,0.77
2023-04-26T08:15:49.395Z,0.77
2023-04-26T08:18:16.060Z,0.70
2023-04-26T08:20:42.854Z,0.73
2023-04-26T08:23:09.703Z,0.90
2023-04-26T08:25:36.508Z,0.90
2023-04-26T08:28:03.239Z,0.80
2023-04-26T08:30:29.950Z,0.90
2023-04-26T08:32:56.787Z,0.90
2023-04-26T08:35:23.498Z,0.90
2023-04-26T08:37:50.300Z,0.80
2023-04-26T08:40:23.723Z,0.80
2023-04-26T08:45:17.203Z,0.80
2023-04-26T08:47:47.260Z,0.80
2023-04-26T08:50:15.875Z,0.70
2023-04-26T08:52:43.341Z,0.80
2023-04-26T08:55:10.883Z,0.80
2023-04-26T08:57:38.136Z,0.70
2023-04-26T09:00:06.510Z,0.77
2023-04-26T09:02:34.484Z,0.77
2023-04-26T09:05:01.346Z,0.70
2023-04-26T09:07:32.893Z,0.70
2023-04-26T09:10:00.961Z,0.70
2023-04-26T09:12:27.646Z,0.70
2023-04-26T09:14:54.423Z,0.70
2023-04-26T09:17:32.446Z,0.70
2023-04-26T09:20:00.262Z,0.70
2023-04-26T09:22:34.609Z,0.80
2023-04-26T09:25:05.724Z,0.70
2023-04-26T09:27:37.455Z,0.70
2023-04-26T09:30:09.598Z,0.80
2023-04-26T09:32:57.650Z,0.80
2023-04-26T09:35:34.278Z,0.75
2023-04-26T09:38:07.930Z,0.70
2023-04-26T09:40:41.079Z,0.75
2023-04-26T09:43:08.955Z,0.70
2023-04-26T09:46:02.033Z,0.70
2023-04-26T09:48:34.708Z,0.70
2023-04-26T09:51:04.026Z,0.73
2023-04-26T09:53:36.962Z,0.70
2023-04-26T09:56:07.525Z,0.70
2023-04-26T09:58:35.004Z,0.80
2023-04-26T10:01:03.629Z,0.70
2023-04-26T10:03:32.525Z,0.70
2023-04-26T10:05:59.416Z,0.70
2023-04-26T10:08:26.373Z,0.70
2023-04-26T10:10:54.368Z,0.80
2023-04-26T10:13:21.864Z,0.70
2023-04-26T10:15:49.177Z,0.73
2023-04-26T10:18:16.035Z,0.70
2023-04-26T10:20:46.317Z,0.70
2023-04-26T10:23:21.153Z,0.70
2023-04-26T10:25:48.453Z,0.70
2023-04-26T10:28:16.274Z,0.80
2023-04-26T10:31:00.005Z,0.80
2023-04-26T10:33:27.317Z,0.80
2023-04-26T10:36:08.170Z,0.70
2023-04-26T10:38:37.238Z,0.80
2023-04-26T10:41:29.266Z,0.77
2023-04-26T10:43:56.228Z,0.80
2023-04-26T10:46:40.086Z,0.70
2023-04-26T10:52:12.825Z,0.80
2023-04-26T10:54:59.365Z,0.80
2023-04-26T10:57:47.528Z,0.80
2023-04-26T11:00:26.809Z,0.82
2023-04-26T11:02:58.103Z,0.80
2023-04-26T11:05:55.974Z,0.70
2023-04-26T11:08:32.072Z,0.70
2023-04-26T11:11:05.070Z,0.82
2023-04-26T11:13:42.251Z,0.70
2023-04-26T11:16:18.874Z,0.80
2023-04-26T11:18:46.795Z,0.80
2023-04-26T11:21:17.832Z,0.90
2023-04-26T11:23:53.985Z,0.80
2023-04-26T11:26:20.631Z,0.70
2023-04-26T11:28:49.493Z,0.65
2023-04-26T11:31:19.054Z,0.70
2023-04-26T11:33:46.786Z,0.70
2023-04-26T11:36:14.803Z,0.80
2023-04-26T11:38:41.393Z,0.90
2023-04-26T11:41:08.103Z,0.80
2023-04-26T11:43:39.236Z,0.82
2023-04-26T11:46:07.492Z,0.80
2023-04-26T11:48:38.826Z,0.70
2023-04-26T11:51:07.565Z,0.80
2023-04-26T11:53:42.099Z,0.70
2023-04-26T11:56:18.478Z,0.80
2023-04-26T11:58:51.052Z,0.80
2023-04-26T12:01:23.639Z,0.80
2023-04-26T12:03:52.288Z,0.85
2023-04-26T12:06:19.377Z,0.80
2023-04-26T12:08:52.414Z,0.80
2023-04-26T12:11:19.264Z,0.80
2023-04-26T12:13:47.539Z,0.80
2023-04-26T12:16:25.692Z,0.80
2023-04-26T12:18:57.120Z,0.77
2023-04-26T12:21:25.186Z,0.80
2023-04-26T12:23:52.269Z,0.80
2023-04-26T12:26:20.619Z,0.80
2023-04-26T12:28:47.339Z,0.80
2023-04-26T12:31:14.065Z,0.70
2023-04-26T12:33:40.954Z,0.70
2023-04-26T12:36:09.684Z,0.80
2023-04-26T12:38:36.540Z,0.70
2023-04-26T12:41:03.524Z,0.70
2023-04-26T12:43:30.396Z,0.70
2023-04-26T12:45:57.325Z,0.70
2023-04-26T12:48:23.956Z,0.77
2023-04-26T12:50:51.427Z,0.70
2023-04-26T12:53:18.762Z,0.80
2023-04-26T12:55:45.421Z,0.80
2023-04-26T12:58:12.238Z,0.82
2023-04-26T13:00:39.005Z,0.80
2023-04-26T13:03:05.801Z,0.80
2023-04-26T13:05:32.544Z,0.70
2023-04-26T13:08:02.174Z,0.80
2023-04-26T13:10:29.017Z,0.70
2023-04-26T13:12:55.999Z,0.70
2023-04-26T13:15:24.831Z,0.70
2023-04-26T13:17:51.568Z,0.80
2023-04-26T13:20:18.364Z,0.80
2023-04-26T13:22:44.998Z,0.70
2023-04-26T13:25:13.222Z,0.90
2023-04-26T13:27:39.882Z,0.80
2023-04-26T13:30:07.329Z,0.70
2023-04-26T13:32:34.172Z,0.80
2023-04-26T13:35:00.807Z,0.75
2023-04-26T13:37:27.778Z,0.80
2023-04-26T13:39:54.528Z,0.70
2023-04-26T13:42:21.342Z,0.80
2023-04-26T13:44:47.966Z,0.73
2023-04-26T13:47:15.666Z,0.80
2023-04-26T13:49:42.737Z,0.70
2023-04-26T13:52:09.367Z,0.70
2023-04-26T13:54:36.835Z,0.80
2023-04-26T13:57:04.065Z,0.80
2023-04-26T13:59:30.773Z,0.70
2023-04-26T14:01:59.057Z,0.80
2023-04-26T14:04:26.423Z,0.73
2023-04-26T14:06:53.091Z,0.80
2023-04-26T14:09:19.700Z,0.82
2023-04-26T14:11:49.450Z,0.80
2023-04-26T14:14:20.794Z,0.90
2023-04-26T14:16:47.548Z,0.77
2023-04-26T14:19:15.841Z,0.90
2023-04-26T14:21:42.613Z,0.80
2023-04-26T14:24:09.268Z,0.80
2023-04-26T14:26:36.042Z,0.75
2023-04-26T14:29:02.742Z,0.88
2023-04-26T14:31:30.464Z,0.80
2023-04-26T14:33:57.225Z,0.80
2023-04-26T14:36:24.283Z,0.80
2023-04-26T14:38:51.174Z,0.80
2023-04-26T14:41:19.138Z,0.70
2023-04-26T14:43:48.977Z,0.80
2023-04-26T14:46:15.874Z,0.80
2023-04-26T14:48:43.924Z,0.80
2023-04-26T14:51:11.129Z,0.73
2023-04-26T14:53:38.709Z,0.70
2023-04-26T14:56:07.691Z,0.70
2023-04-26T14:58:34.709Z,0.80
2023-04-26T15:01:02.533Z,0.80
2023-04-26T15:03:29.489Z,0.75
2023-04-26T15:05:56.387Z,0.80
2023-04-26T15:08:23.025Z,0.80
2023-04-26T15:10:49.735Z,0.73
2023-04-26T15:13:16.799Z,0.80
2023-04-26T15:15:43.547Z,0.85
2023-04-26T15:18:10.263Z,0.80
2023-04-26T15:20:40.329Z,0.70
2023-04-26T15:23:07.801Z,0.70
2023-04-26T15:25:36.539Z,0.70
2023-04-26T15:28:04.163Z,0.70
2023-04-26T15:30:30.797Z,0.80
2023-04-26T15:32:57.768Z,0.80
2023-04-26T15:35:25.140Z,0.80
2023-04-26T15:37:53.829Z,0.80
2023-04-26T15:40:21.377Z,0.80
2023-04-26T15:42:49.236Z,0.80
2023-04-26T15:45:15.912Z,0.70
2023-04-26T15:47:42.725Z,0.82
2023-04-26T15:50:09.821Z,0.70
2023-04-26T15:52:39.250Z,0.70
2023-04-26T15:55:10.474Z,0.88
2023-04-26T15:57:37.710Z,0.80
2023-04-26T16:00:08.382Z,0.80
2023-04-26T16:02:35.100Z,0.80
2023-04-26T16:05:01.992Z,0.80
2023-04-26T16:07:28.991Z,0.70
2023-04-26T16:09:55.659Z,0.80
2023-04-26T16:12:22.453Z,0.70
2023-04-26T16:14:49.402Z,0.70
2023-04-26T16:17:16.026Z,0.70
2023-04-26T16:19:42.622Z,0.60
2023-04-26T16:22:09.220Z,0.70
2023-04-26T16:24:35.946Z,0.80
2023-04-26T16:27:02.936Z,0.70
2023-04-26T16:29:40.390Z,0.80
2023-04-26T16:32:07.013Z,0.80
2023-04-26T16:34:33.619Z,0.70
2023-04-26T16:37:00.204Z,0.70
2023-04-26T16:39:28.312Z,0.70
2023-04-26T16:41:54.944Z,0.63
2023-04-26T16:44:21.615Z,0.70
2023-04-26T16:46:48.192Z,0.70
2023-04-26T16:49:14.788Z,0.68
2023-04-26T16:51:44.262Z,0.70
2023-04-26T16:54:10.946Z,0.60
2023-04-26T16:56:37.574Z,0.60
2023-04-26T16:59:04.544Z,0.60
2023-04-26T17:01:31.225Z,0.65
2023-04-26T17:03:58.254Z,0.60
2023-04-26T17:06:24.934Z,0.70
2023-04-26T17:08:51.637Z,0.70
2023-04-26T17:11:18.566Z,0.60
2023-04-26T17:13:45.250Z,0.60
2023-04-26T17:16:12.205Z,0.70
2023-04-26T17:18:38.856Z,0.70
2023-04-26T17:21:05.861Z,0.70
2023-04-26T17:23:33.804Z,0.65
2023-04-26T17:26:01.273Z,0.70
2023-04-26T17:28:27.979Z,0.70
2023-04-26T17:30:54.579Z,0.70
2023-04-26T17:33:21.343Z,0.68
2023-04-26T17:35:48.029Z,0.70
2023-04-26T17:38:14.580Z,0.65
2023-04-26T17:40:41.230Z,0.70
2023-04-26T17:43:07.827Z,0.68
2023-04-26T17:45:34.551Z,0.70
2023-04-26T17:48:01.282Z,0.63
2023-04-26T17:50:28.650Z,0.70
2023-04-26T17:52:55.304Z,0.70
2023-04-26T17:55:22.056Z,0.70
2023-04-26T17:57:48.741Z,0.60
2023-04-26T18:00:15.848Z,0.70
2023-04-26T18:02:43.246Z,0.70
2023-04-26T18:05:10.347Z,0.70
2023-04-26T18:07:36.949Z,0.60
2023-04-26T18:10:04.324Z,0.70
2023-04-26T18:12:32.206Z,0.60
2023-04-26T18:14:59.018Z,0.60
2023-04-26T18:17:25.848Z,0.70
2023-04-26T18:19:52.659Z,0.60
2023-04-26T18:22:19.447Z,0.60
2023-04-26T18:24:46.939Z,0.70
2023-04-26T18:27:14.149Z,0.60
2023-04-26T18:29:41.376Z,0.60
2023-04-26T18:32:08.275Z,0.65
2023-04-26T18:34:35.243Z,0.70
2023-04-26T18:37:01.861Z,0.70
2023-04-26T18:39:28.587Z,0.70
2023-04-26T18:41:55.298Z,0.70
2023-04-26T18:44:21.992Z,0.68
2023-04-26T18:46:48.840Z,0.70
2023-04-26T18:49:15.570Z,0.70
2023-04-26T18:51:42.173Z,0.65
2023-04-26T18:54:08.957Z,0.70
2023-04-26T18:56:37.620Z,0.70
2023-04-26T18:59:04.606Z,0.70
2023-04-26T19:01:31.362Z,0.70
2023-04-26T19:03:58.605Z,0.70
2023-04-26T19:06:26.330Z,0.60
2023-04-26T19:08:53.223Z,0.60
2023-04-26T19:11:20.297Z,0.65
2023-04-26T19:13:47.552Z,0.70
2023-04-26T19:16:14.264Z,0.70
2023-04-26T19:18:41.168Z,0.63
2023-04-26T19:21:08.619Z,0.60
2023-04-26T19:23:36.007Z,0.60
2023-04-26T19:26:08.274Z,0.70
2023-04-26T19:28:35.997Z,0.60
2023-04-26T19:31:02.723Z,0.60
2023-04-26T19:33:29.830Z,0.60
2023-04-26T19:35:56.930Z,0.70
2023-04-26T19:38:24.551Z,0.60
2023-04-26T19:40:54.451Z,0.60
2023-04-26T19:43:21.218Z,0.70
2023-04-26T19:45:48.152Z,0.60
2023-04-26T19:48:15.222Z,0.70
2023-04-26T19:50:44.329Z,0.70
2023-04-26T19:53:13.224Z,0.60
2023-04-26T19:55:41.384Z,0.70
2023-04-26T19:58:08.875Z,0.60
2023-04-26T20:00:36.304Z,0.60
2023-04-26T20:03:03.243Z,0.60
2023-04-26T20:05:30.320Z,0.70
2023-04-26T20:07:57.580Z,0.60
2023-04-26T20:10:24.576Z,0.60
2023-04-26T20:12:52.000Z,0.60
2023-04-26T20:15:19.441Z,0.60
2023-04-26T20:17:46.775Z,0.55
2023-04-26T20:20:13.766Z,0.60
2023-04-26T20:22:41.724Z,0.50
2023-04-26T20:25:09.123Z,0.60
2023-04-26T20:27:36.071Z,0.60
2023-04-26T20:30:04.512Z,0.52
2023-04-26T20:32:31.250Z,0.50
2023-04-26T20:34:58.010Z,0.60
2023-04-26T20:37:24.833Z,0.70
2023-04-26T20:39:51.560Z,0.57
2023-04-26T20:42:18.242Z,0.60
2023-04-26T20:44:44.854Z,0.55
2023-04-26T20:47:11.550Z,0.60
2023-04-26T20:49:38.233Z,0.60
2023-04-26T20:52:05.295Z,0.60
2023-04-26T20:54:32.024Z,0.52
2023-04-26T20:56:58.708Z,0.60
2023-04-26T20:59:26.000Z,0.60
2023-04-26T21:01:53.133Z,0.60
2023-04-26T21:04:20.012Z,0.60
2023-04-26T21:06:46.746Z,0.60
2023-04-26T21:09:13.539Z,0.60
2023-04-26T21:11:40.237Z,0.52
2023-04-26T21:14:07.202Z,0.60
2023-04-26T21:16:33.970Z,0.60
2023-04-26T21:19:00.565Z,0.60
2023-04-26T21:21:28.680Z,0.57
2023-04-26T21:23:55.576Z,0.70
2023-04-26T21:26:22.273Z,0.60
2023-04-26T21:28:48.916Z,0.60
2023-04-26T21:31:15.659Z,0.60
2023-04-26T21:33:42.347Z,0.60
2023-04-26T21:36:09.258Z,0.70
2023-04-26T21:38:35.897Z,0.60
2023-04-26T21:41:02.553Z,0.60
2023-04-26T21:43:29.238Z,0.60
2023-04-26T21:45:58.067Z,0.60
2023-04-26T21:48:26.269Z,0.60
2023-04-26T21:50:53.220Z,0.60
2023-04-26T21:53:19.975Z,0.60
2023-04-26T21:55:54.001Z,0.60
2023-04-26T21:58:21.612Z,0.60
2023-04-26T22:00:49.007Z,0.60
2023-04-26T22:03:16.348Z,0.50
2023-04-26T22:05:43.250Z,0.70
2023-04-26T22:08:09.960Z,0.60
2023-04-26T22:10:36.702Z,0.50
2023-04-26T22:13:03.679Z,0.50
2023-04-26T22:15:30.876Z,0.60
2023-04-26T22:17:57.680Z,0.60
2023-04-26T22:20:24.512Z,0.50
2023-04-26T22:22:51.106Z,0.60
2023-04-26T22:25:17.693Z,0.52
2023-04-26T22:27:44.328Z,0.60
2023-04-26T22:30:22.735Z,0.60
2023-04-26T22:32:54.485Z,0.57
2023-04-26T22:35:22.086Z,0.55
2023-04-26T22:37:48.974Z,0.60
2023-04-26T22:40:16.219Z,0.55
2023-04-26T22:42:43.753Z,0.60
2023-04-26T22:45:11.980Z,0.50
2023-04-26T22:47:39.903Z,0.60
2023-04-26T22:50:07.723Z,0.50
2023-04-26T22:52:35.237Z,0.50
2023-04-26T22:55:02.084Z,0.50
2023-04-26T22:57:29.390Z,0.50
2023-04-26T22:59:56.099Z,0.50
2023-04-26T23:02:22.849Z,0.57
2023-04-26T23:04:49.564Z,0.60
2023-04-26T23:07:16.532Z,0.60
2023-04-26T23:09:43.302Z,0.50
2023-04-26T23:12:09.999Z,0.50
2023-04-26T23:14:37.873Z,0.60
2023-04-26T23:17:05.549Z,0.52
2023-04-26T23:19:33.112Z,0.52
2023-04-26T23:22:00.225Z,0.60
2023-04-26T23:24:27.095Z,0.60
2023-04-26T23:26:53.811Z,0.60
2023-04-26T23:29:20.661Z,0.50
2023-04-26T23:31:47.544Z,0.50
2023-04-26T23:34:14.334Z,0.50
2023-04-26T23:36:41.221Z,0.50
2023-04-26T23:39:08.799Z,0.50
2023-04-26T23:41:35.918Z,0.45
2023-04-26T23:44:02.536Z,0.50
2023-04-26T23:46:29.368Z,0.52
2023-04-26T23:48:56.145Z,0.40
2023-04-26T23:51:22.789Z,0.50
2023-04-26T23:53:49.453Z,0.50
2023-04-26T23:56:16.142Z,0.50
2023-04-26T23:58:42.728Z,0.50
